Event-Kalender
Terminkalender Drucken Email help
Jahresansicht Monatsansicht Wochenansicht Heute Suche Zum ausgwählten Monat wechseln
Termine für
Dienstag, 2. Mai 2017



JEvents v1.5.5e   Copyright © 2006-2011

Zufallsbild

Aktuelle Termine

Mo Di Mi Do Fr Sa So
1 2 3 4 5 6 7
8 9 10 11 12 13 14
15 16 17 18 19 20 21
22 23 24 25 26 27 28
29 30 31 1 2 3 4

Pilotenwetter

[source: ADDS]
METAR
EDDH 232320Z 32002KT CAVOK 12/11 Q1023 TEMPO 4000 RADZ =
TAF
TAF EDDH 232300Z 2400/2506 33005KT 9999 BKN040 BECMG 2400/2403 BKN012 TEMPO 2400/2411 3000 DZRA BKN007 PROB40 TEMPO 2403/2409 BKN003 BECMG 2411/2413 04005KT SCT015 BKN020 BECMG 2422/2501 4000 BR TEMPO 2501/2506 2000 BKN007 =